Malcolm, Alabama
Current Conditions -  °F | °C
As of 7:10 PM on Sunday 23 Nov 2014 (Local Time) from KMOB Reporting Station
Broken Clouds Broken Clouds  
Wind Chill: 64°   Ceiling: 1700
Heat Index: 64°   Visibility: 8mi
Dew Point: 64°   Wind: 13mph
Humidity: 100%   Direction: 190°S
Pressure: 29.72"   Gusts: NA
Location:  31.19°N, 88.01°W
Report Text: KMOB 240110Z 19011KT 8SM FEW008 BKN017 18/18 A2972 RMK AO2 T01780178 $
Loading
Personal Weather Stations






























Interactive Weather Map New forecast layout! Learn more

10-Day Weather Forecast

Advertisements
Track Severe Weather on mobile